CheckWX is a tool to help pilots better visualize weather data.  It is not intended as a substitute for an official pre-flight weather briefing.

09:31:19 UTC

KBED METAR
Laurence G Hanscom Field Airport
Bedford, Massachusetts, USA
Current

35 mins ago

KBED 200856Z AUTO 00000KT 10SM CLR M12/M18 A3056 RMK AO2 SLP365 T11221178 50001
Observed
Feb-20 @ 08:56 UTC
Visibility
16,093 meters
Flight Rules
VFR
Cloud Levels
  • Clear skies
Temperature
-12°C / 10°F
Dewpoint
-18°C / -0°F
Humidity
61%
Altimeter
30.56" Hg
Pressure
1036.5 hPa
Previous

2 hours ago

KBED 200756Z AUTO 27003KT 10SM CLR M10/M17 A3057 RMK AO2 SLP369 T11001167
Observed
Feb-20 @ 07:56 UTC
Wind
  • 270° at 3 KTS
Visibility
16,093 meters
Flight Rules
VFR
Cloud Levels
  • Clear skies
Temperature
-10°C / 14°F
Dewpoint
-17°C / 1°F
Humidity
57%
Altimeter
30.57" Hg
Pressure
1036.9 hPa
Previous

3 hours ago

KBED 200656Z AUTO 26004KT 10SM CLR M09/M17 A3057 RMK AO2 SLP370 T10891167
Observed
Feb-20 @ 06:56 UTC
Wind
  • 260° at 4 KTS
Visibility
16,093 meters
Flight Rules
VFR
Cloud Levels
  • Clear skies
Temperature
-9°C / 16°F
Dewpoint
-17°C / 1°F
Humidity
53%
Altimeter
30.57" Hg
Pressure
1037 hPa